AirNav   Air Wisconsin pilot careers
 
 1018 users online  

3T8 Wildcat Canyon Airport
China Spring, Texas, USA

GOING TO CHINA SPRING?


FAA INFORMATION EFFECTIVE 07 DECEMBER 2017

Location

FAA Identifier: 3T8
Lat/Long: 31-40-42.8000N / 097-21-45.2000W
31-40.713333N / 097-21.753333W
31.6785556 / -97.3625556
(estimated)
Elevation: 660 ft. / 201 m (estimated)
Variation: 07E (1990)
From city: 4 miles NW of CHINA SPRING, TX
Time zone: UTC -6 (UTC -5 during Daylight Saving Time)
Zip code: 76633

Airport Operations

Airport use: Open to the public
Activation date: 11/1992
Control tower: no
ARTCC: FORT WORTH CENTER
FSS: FORT WORTH FLIGHT SERVICE STATION
NOTAMs facility: FTW (NOTAM-D service available)
Attendance: UNATNDD
Wind indicator: yes
Segmented circle: no

Airport Communications

CTAF: 122.9
WX ASOS at ACT (8 nm SE): PHONE 254-759-3065
WX AWOS-3PT at PWG (12 nm S): 135.525 (254-848-4581)
WX AWOS-3 at CNW (15 nm E): 134.225 (254-867-3880)

Nearby radio navigation aids

VOR radial/distance  VOR name  Freq  Var
ACTr273/4.9WACO VORTAC115.3009E
TPLr357/28.3TEMPLE VOR/DME110.4009E
JENr132/39.0GLEN ROSE VORTAC115.0006E

 
NDB name  Hdg/Dist  Freq  Var  ID
ROBINSON298/18.340007EROB .-. --- -...
HOOD021/37.534707EHLR .... .-.. .-.

Airport Services

Parking: tiedowns

Runway Information

Runway 15/33

Dimensions: 2450 x 60 ft. / 747 x 18 m
Surface: turf, in good condition
RUNWAY 15  RUNWAY 33
Latitude: 31-40.892675N31-40.535473N
Longitude: 097-21.864032W097-21.642847W
Elevation: 658.0 ft.649.0 ft.
Gradient: 0.4% UP
Traffic pattern: leftleft
Runway heading: 145 magnetic, 152 true325 magnetic, 332 true
Obstructions: 8 ft. fence, marked, 160 ft. from runway, 20:1 slope to clear10 ft. road, 200 ft. from runway, 20:1 slope to clear

Airport Ownership and Management from official FAA records

Ownership: Privately-owned
Owner: DONALD W. BAKER
381 BAKER RANCH ROAD
CHINA SPRING, TX 76633
Phone (817) 909-8044
Manager: DONALD W. BAKER
381 BAKER RANCH ROAD
CHINA SPRING, TX 76633
Phone 817-909-8044

Airport Operational Statistics

Aircraft operations: avg 52/month *
97% transient general aviation
3% military
* for 12-month period ending 18 February 2016

Additional Remarks

DEER AND WILD HOGS ON & INVOF RY.

Instrument Procedures

There are no published instrument procedures at 3T8.

Some nearby airports with instrument procedures:

KACT - Waco Regional Airport (8 nm SE)
KPWG - Mc Gregor Executive Airport (12 nm S)
KCNW - TSTC Waco Airport (15 nm E)
KINJ - Hillsboro Municipal Airport (28 nm NE)
KTPL - Draughon-Miller Central Texas Regional Airport (32 nm S)
 
Loc | Ops | Rwys | IFR | FBO | Links
Com | Nav | Svcs | Stats | Notes


 
Area around 3T8 (Wildcat Canyon Airport)
 
Road maps at: MapQuest Bing Google
 
Aerial photo
No photo
 
Sectional chart

 
Airport distance calculator
Flying to Wildcat Canyon Airport? Find the distance to fly.

From to 3T8

Sunrise and sunset
Times for 16-Dec-2017
 Local
(UTC-6)
 Zulu
(UTC)
Morning civil twilight06:5712:57
Sunrise07:2313:23
Sunset17:2723:27
Evening civil twilight17:5423:54

Current date and time
Zulu (UTC)  16-Dec-2017 17:57:27
Local (UTC-6)  16-Dec-2017 11:57:27
 
METAR
KACT 
8nm SE 
161751Z 16008KT 10SM OVC070 12/02 A3013 RMK AO2 SLP202 T01170022 10122 20028 58008
KPWG 
13nm S 
161756Z AUTO 17006KT 10SM OVC070 11/03 A3013 RMK AO2 SLP222 T01110028 10111 20028 58008
KCNW 
15nm E 
161750Z 15003KT 10SM OVC070 12/02 A3014
TAF
KACT 
8nm SE 
161452Z 1615/1712 19005KT P6SM BKN200 FM161800 18012KT P6SM VCSH BKN080 FM162200 16009KT 6SM -SHRA BKN030 FM170000 15006KT 4SM SHRA BR OVC008 FM170500 15004KT 2SM BR OVC006
NOTAMs
Click for the latest NOTAMs
NOTAMs are issued by the DoD/FAA and will open in a separate window not controlled by AirNav.

 

 
 

Would you like to see your business listed on this page?

 If your business provides an interesting product or service to pilots, flight crews, aircraft, or users of the Wildcat Canyon Airport, you should consider listing it here.  To start the listing process, click on the button below
 
Add a business
 

Other Pages about Wildcat Canyon Airport

Update a link
 
Copyright © AirNav, LLC. All rights reserved. Privacy Policy  Contact